createdAt,value
2017-09-28T00:00:44.182Z,17.34
2017-09-28T00:01:44.153Z,17.41
2017-09-28T00:02:44.174Z,17.38
2017-09-28T00:03:44.197Z,17.34
2017-09-28T00:04:44.551Z,17.38
2017-09-28T00:05:44.238Z,17.42
2017-09-28T00:06:44.266Z,17.46
2017-09-28T00:07:44.294Z,17.38
2017-09-28T00:08:44.316Z,17.3
2017-09-28T00:09:44.338Z,17.33
2017-09-28T00:10:44.358Z,17.27
2017-09-28T00:11:44.692Z,17.38
2017-09-28T00:12:50.665Z,17.27
2017-09-28T00:13:44.428Z,17.22
2017-09-28T00:14:44.444Z,17.02
2017-09-28T00:15:44.527Z,16.99
2017-09-28T00:16:44.488Z,17.01
2017-09-28T00:17:44.513Z,17.02
2017-09-28T00:18:44.536Z,16.91
2017-09-28T00:19:44.559Z,16.81
2017-09-28T00:20:44.584Z,16.89
2017-09-28T00:21:44.600Z,16.96
2017-09-28T00:22:44.628Z,16.99
2017-09-28T00:23:44.654Z,16.97
2017-09-28T00:24:44.666Z,16.96
2017-09-28T00:25:44.691Z,16.94
2017-09-28T00:26:44.715Z,17.01
2017-09-28T00:27:44.738Z,16.93
2017-09-28T00:28:44.761Z,17.05
2017-09-28T00:29:44.791Z,17.08
2017-09-28T00:30:44.854Z,16.93
2017-09-28T00:31:44.836Z,16.9
2017-09-28T00:32:44.856Z,17.02
2017-09-28T00:33:44.870Z,16.97
2017-09-28T00:34:44.899Z,16.94
2017-09-28T00:35:44.916Z,17.02
2017-09-28T00:36:44.944Z,16.97
2017-09-28T00:37:44.965Z,16.94
2017-09-28T00:38:44.985Z,16.94
2017-09-28T00:39:45.007Z,17.08
2017-09-28T00:40:45.028Z,17.04
2017-09-28T00:41:45.051Z,17.04
2017-09-28T00:42:45.075Z,17.01
2017-09-28T00:43:45.093Z,16.94
2017-09-28T00:44:45.122Z,16.9
2017-09-28T00:45:45.138Z,16.91
2017-09-28T00:46:45.159Z,16.79
2017-09-28T00:47:45.187Z,16.76
2017-09-28T00:48:45.214Z,16.84
2017-09-28T00:49:45.228Z,16.83
2017-09-28T00:50:45.249Z,16.79
2017-09-28T00:51:45.271Z,16.79
2017-09-28T00:52:45.301Z,16.83
2017-09-28T00:53:45.333Z,16.89
2017-09-28T00:54:45.339Z,16.87
2017-09-28T00:55:45.362Z,16.9
2017-09-28T00:56:45.381Z,16.9
2017-09-28T00:57:45.404Z,16.97
2017-09-28T00:58:45.434Z,16.93
2017-09-28T00:59:45.764Z,17.01
2017-09-28T01:00:45.470Z,16.94
2017-09-28T01:01:45.511Z,16.99
2017-09-28T01:02:45.515Z,16.96
2017-09-28T01:03:45.544Z,16.93
2017-09-28T01:04:45.557Z,16.93
2017-09-28T01:05:45.583Z,16.75
2017-09-28T01:06:45.604Z,16.76
2017-09-28T01:07:45.623Z,16.75
2017-09-28T01:08:45.696Z,16.78
2017-09-28T01:09:45.673Z,16.76
2017-09-28T01:10:45.699Z,16.86
2017-09-28T01:11:45.718Z,16.83
2017-09-28T01:12:45.742Z,16.89
2017-09-28T01:13:45.760Z,16.76
2017-09-28T01:14:46.096Z,16.86
2017-09-28T01:15:45.803Z,16.83
2017-09-28T01:16:45.840Z,16.86
2017-09-28T01:17:45.849Z,16.79
2017-09-28T01:18:45.925Z,16.87
2017-09-28T01:19:45.890Z,16.84
2017-09-28T01:20:45.914Z,16.91
2017-09-28T01:21:45.939Z,16.84
2017-09-28T01:22:45.956Z,16.78
2017-09-28T01:23:45.981Z,16.78
2017-09-28T01:24:46.003Z,16.75
2017-09-28T01:25:46.022Z,16.71
2017-09-28T01:26:46.046Z,16.69
2017-09-28T01:27:46.066Z,16.66
2017-09-28T01:28:46.091Z,16.65
2017-09-28T01:29:46.122Z,16.69
2017-09-28T01:30:46.133Z,16.6
2017-09-28T01:31:46.235Z,16.61
2017-09-28T01:32:47.129Z,16.56
2017-09-28T01:33:46.202Z,16.65
2017-09-28T01:34:46.340Z,16.75
2017-09-28T01:35:46.243Z,16.66
2017-09-28T01:36:46.267Z,16.66
2017-09-28T01:37:46.284Z,16.74
2017-09-28T01:38:46.316Z,16.68
2017-09-28T01:39:46.341Z,16.72
2017-09-28T01:40:46.361Z,16.51
2017-09-28T01:41:46.376Z,16.64
2017-09-28T01:42:46.398Z,16.58
2017-09-28T01:43:46.416Z,16.56
2017-09-28T01:44:46.436Z,16.42
2017-09-28T01:45:46.458Z,16.42
2017-09-28T01:46:46.484Z,16.36
2017-09-28T01:47:46.503Z,16.32
2017-09-28T01:48:46.523Z,16.29
2017-09-28T01:49:46.549Z,16.33
2017-09-28T01:50:46.568Z,16.28
2017-09-28T01:51:46.588Z,16.33
2017-09-28T01:52:46.611Z,16.2
2017-09-28T01:53:46.639Z,16.17
2017-09-28T01:54:46.662Z,16.36
2017-09-28T01:55:46.683Z,16.23
2017-09-28T01:56:46.703Z,16.36
2017-09-28T01:57:46.724Z,16.32
2017-09-28T01:58:46.749Z,16.39
2017-09-28T01:59:46.762Z,16.38
2017-09-28T02:00:46.787Z,16.38
2017-09-28T02:01:46.809Z,16.39
2017-09-28T02:02:46.847Z,16.41
2017-09-28T02:03:47.189Z,16.42
2017-09-28T02:04:46.879Z,16.32
2017-09-28T02:05:46.895Z,16.26
2017-09-28T02:06:47.284Z,16.24
2017-09-28T02:07:46.937Z,16.17
2017-09-28T02:08:46.964Z,16.23
2017-09-28T02:09:46.986Z,16.1
2017-09-28T02:10:47.324Z,16.12
2017-09-28T02:11:47.027Z,16.1
2017-09-28T02:12:47.365Z,16.23
2017-09-28T02:13:47.066Z,16.21
2017-09-28T02:14:47.404Z,16.16
2017-09-28T02:15:47.430Z,16.17
2017-09-28T02:16:47.132Z,16.21
2017-09-28T02:17:47.155Z,16.2
2017-09-28T02:18:47.177Z,16.23
2017-09-28T02:19:47.206Z,16.24
2017-09-28T02:20:47.224Z,16.26
2017-09-28T02:21:47.238Z,16.28
2017-09-28T02:22:47.258Z,16.21
2017-09-28T02:23:47.283Z,16.13
2017-09-28T02:24:47.306Z,16.17
2017-09-28T02:25:47.345Z,16.16
2017-09-28T02:26:47.349Z,16.2
2017-09-28T02:27:47.370Z,16.17
2017-09-28T02:28:47.385Z,16.16
2017-09-28T02:29:47.412Z,16.17
2017-09-28T02:30:47.430Z,16.16
2017-09-28T02:31:47.454Z,16.21
2017-09-28T02:32:47.790Z,16.21
2017-09-28T02:33:47.499Z,16.2
2017-09-28T02:34:47.517Z,16.17
2017-09-28T02:35:47.544Z,16.13
2017-09-28T02:36:47.563Z,16.17
2017-09-28T02:37:47.582Z,16.21
2017-09-28T02:38:47.604Z,16.2
2017-09-28T02:39:47.625Z,16.21
2017-09-28T02:40:47.650Z,16.2
2017-09-28T02:41:47.669Z,16.2
2017-09-28T02:42:47.698Z,16.16
2017-09-28T02:43:47.715Z,16.17
2017-09-28T02:44:47.741Z,16.26
2017-09-28T02:45:47.760Z,16.13
2017-09-28T02:46:47.777Z,16.17
2017-09-28T02:47:47.806Z,16.21
2017-09-28T02:48:47.819Z,16.13
2017-09-28T02:49:48.159Z,16.15
2017-09-28T02:50:48.177Z,16.1
2017-09-28T02:51:47.887Z,16.17
2017-09-28T02:52:47.909Z,16.12
2017-09-28T02:53:47.924Z,16.23
2017-09-28T02:54:47.956Z,16.17
2017-09-28T02:55:47.968Z,16.23
2017-09-28T02:56:48.041Z,16.09
2017-09-28T02:57:48.013Z,16.08
2017-09-28T02:58:48.038Z,16.13
2017-09-28T02:59:48.061Z,16.1
2017-09-28T03:00:48.078Z,16.15
2017-09-28T03:01:48.097Z,16.2
2017-09-28T03:02:48.116Z,16.2
2017-09-28T03:03:48.144Z,16.16
2017-09-28T03:04:48.170Z,16.09
2017-09-28T03:05:48.232Z,16.17
2017-09-28T03:06:48.517Z,16.12
2017-09-28T03:07:48.225Z,16.09
2017-09-28T03:08:48.255Z,16.1
2017-09-28T03:09:48.582Z,16.02
2017-09-28T03:10:48.309Z,16.05
2017-09-28T03:11:48.313Z,15.95
2017-09-28T03:12:48.337Z,16
2017-09-28T03:13:48.357Z,15.94
2017-09-28T03:14:48.379Z,15.98
2017-09-28T03:15:48.396Z,15.92
2017-09-28T03:16:48.420Z,15.9
2017-09-28T03:17:48.442Z,15.79
2017-09-28T03:18:48.469Z,15.79
2017-09-28T03:19:48.486Z,15.76
2017-09-28T03:20:48.507Z,15.73
2017-09-28T03:21:48.538Z,15.7
2017-09-28T03:22:48.558Z,15.73
2017-09-28T03:23:48.579Z,15.76
2017-09-28T03:24:48.595Z,15.72
2017-09-28T03:25:48.615Z,15.58
2017-09-28T03:26:48.640Z,15.59
2017-09-28T03:27:48.673Z,15.59
2017-09-28T03:28:48.682Z,15.55
2017-09-28T03:29:48.700Z,15.47
2017-09-28T03:30:48.725Z,15.43
2017-09-28T03:31:48.750Z,15.49
2017-09-28T03:32:49.094Z,15.42
2017-09-28T03:33:49.103Z,15.44
2017-09-28T03:34:48.806Z,15.47
2017-09-28T03:35:48.830Z,15.46
2017-09-28T03:36:49.161Z,15.42
2017-09-28T03:37:48.867Z,15.43
2017-09-28T03:38:49.204Z,15.52
2017-09-28T03:39:48.918Z,15.35
2017-09-28T03:40:48.934Z,15.46
2017-09-28T03:41:48.952Z,15.37
2017-09-28T03:42:48.977Z,15.43
2017-09-28T03:43:48.998Z,15.49
2017-09-28T03:44:49.018Z,15.49
2017-09-28T03:45:49.042Z,15.47
2017-09-28T03:46:49.069Z,15.47
2017-09-28T03:47:49.085Z,15.4
2017-09-28T03:48:49.410Z,15.4
2017-09-28T03:49:49.138Z,15.36
2017-09-28T03:50:49.145Z,15.39
2017-09-28T03:51:49.170Z,15.35
2017-09-28T03:52:49.496Z,15.36
2017-09-28T03:53:49.208Z,15.39
2017-09-28T03:54:49.555Z,15.31
2017-09-28T03:55:49.252Z,15.42
2017-09-28T03:56:49.273Z,15.37
2017-09-28T03:57:49.299Z,15.4
2017-09-28T03:58:49.322Z,15.36
2017-09-28T03:59:49.340Z,15.39
2017-09-28T04:00:49.364Z,15.39
2017-09-28T04:01:49.378Z,15.33
2017-09-28T04:02:49.399Z,15.35
2017-09-28T04:03:49.429Z,15.33
2017-09-28T04:04:49.447Z,15.21
2017-09-28T04:05:49.463Z,15.24
2017-09-28T04:06:49.483Z,15.29
2017-09-28T04:07:49.517Z,15.24
2017-09-28T04:08:49.522Z,15.19
2017-09-28T04:09:49.547Z,15.19
2017-09-28T04:10:49.876Z,15.21
2017-09-28T04:11:49.604Z,15.24
2017-09-28T04:12:49.612Z,15.18
2017-09-28T04:13:49.632Z,15.22
2017-09-28T04:14:49.653Z,15.28
2017-09-28T04:15:49.988Z,15.25
2017-09-28T04:16:49.690Z,15.18
2017-09-28T04:17:49.710Z,15.06
2017-09-28T04:18:49.764Z,15.15
2017-09-28T04:19:49.759Z,15.1
2017-09-28T04:20:49.830Z,15.07
2017-09-28T04:21:49.797Z,15.02
2017-09-28T04:22:49.826Z,15.03
2017-09-28T04:23:49.838Z,14.94
2017-09-28T04:24:49.863Z,15
2017-09-28T04:25:49.884Z,15.04
2017-09-28T04:26:49.902Z,14.97
2017-09-28T04:27:49.926Z,14.99
2017-09-28T04:28:49.963Z,14.97
2017-09-28T04:29:49.978Z,14.97
2017-09-28T04:30:49.990Z,15.04
2017-09-28T04:31:50.009Z,15.07
2017-09-28T04:32:50.027Z,14.99
2017-09-28T04:33:50.049Z,15.04
2017-09-28T04:34:50.090Z,14.85
2017-09-28T04:35:50.094Z,14.92
2017-09-28T04:36:50.115Z,14.99
2017-09-28T04:37:50.145Z,14.96
2017-09-28T04:38:50.156Z,14.97
2017-09-28T04:39:50.176Z,14.97
2017-09-28T04:40:50.204Z,15.14
2017-09-28T04:41:50.218Z,15.03
2017-09-28T04:42:50.237Z,15.03
2017-09-28T04:43:50.264Z,15.04
2017-09-28T04:44:50.287Z,15.09
2017-09-28T04:45:50.304Z,15.17
2017-09-28T04:46:50.323Z,15.18
2017-09-28T04:47:50.343Z,15.22
2017-09-28T04:48:50.379Z,15.18
2017-09-28T04:49:50.388Z,15.21
2017-09-28T04:50:50.424Z,15.19
2017-09-28T04:51:50.431Z,15.21
2017-09-28T04:52:50.454Z,15.21
2017-09-28T04:53:50.470Z,15.31
2017-09-28T04:54:50.546Z,15.25
2017-09-28T04:55:50.513Z,15.19
2017-09-28T04:56:50.547Z,15.15
2017-09-28T04:57:50.561Z,15.21
2017-09-28T04:58:50.578Z,15.17
2017-09-28T04:59:50.600Z,15.14
2017-09-28T05:00:50.622Z,15.11
2017-09-28T05:01:50.641Z,15.18
2017-09-28T05:02:50.675Z,15.19
2017-09-28T05:03:50.685Z,15.11
2017-09-28T05:04:51.020Z,15.1
2017-09-28T05:05:50.725Z,15.15
2017-09-28T05:06:50.749Z,15.17
2017-09-28T05:07:51.080Z,15.22
2017-09-28T05:08:50.794Z,15.25
2017-09-28T05:09:50.823Z,15.33
2017-09-28T05:10:50.846Z,15.35
2017-09-28T05:11:50.864Z,15.29
2017-09-28T05:12:50.897Z,15.33
2017-09-28T05:13:50.902Z,15.29
2017-09-28T05:14:50.917Z,15.31
2017-09-28T05:15:50.942Z,15.28
2017-09-28T05:16:50.958Z,15.21
2017-09-28T05:17:50.983Z,15.29
2017-09-28T05:18:50.998Z,15.37
2017-09-28T05:19:51.019Z,15.35
2017-09-28T05:20:51.046Z,15.37
2017-09-28T05:21:51.060Z,15.39
2017-09-28T05:22:51.086Z,15.33
2017-09-28T05:23:51.106Z,15.43
2017-09-28T05:24:51.125Z,15.47
2017-09-28T05:25:51.147Z,15.47
2017-09-28T05:26:51.169Z,15.55
2017-09-28T05:27:51.196Z,15.44
2017-09-28T05:28:51.261Z,15.42
2017-09-28T05:29:51.252Z,15.37
2017-09-28T05:30:51.251Z,15.37
2017-09-28T05:31:51.277Z,15.39
2017-09-28T05:32:51.298Z,15.52
2017-09-28T05:33:51.322Z,15.55
2017-09-28T05:34:51.339Z,15.73
2017-09-28T05:35:51.360Z,15.65
2017-09-28T05:36:51.383Z,15.7
2017-09-28T05:37:51.406Z,15.72
2017-09-28T05:38:51.423Z,15.8
2017-09-28T05:39:51.453Z,15.88
2017-09-28T05:40:51.471Z,15.79
2017-09-28T05:41:51.492Z,15.97
2017-09-28T05:42:51.513Z,15.97
2017-09-28T05:43:51.897Z,16
2017-09-28T05:44:51.554Z,15.98
2017-09-28T05:45:51.898Z,16.04
2017-09-28T05:46:51.594Z,16.02
2017-09-28T05:47:51.673Z,16.15
2017-09-28T05:48:51.643Z,16.1
2017-09-28T05:49:51.665Z,16.2
2017-09-28T05:50:51.686Z,16.1
2017-09-28T05:51:51.717Z,16.09
2017-09-28T05:52:51.727Z,16.08
2017-09-28T05:53:51.747Z,16.1
2017-09-28T05:54:51.770Z,16.1
2017-09-28T05:55:51.794Z,16.13
2017-09-28T05:56:51.824Z,16.33
2017-09-28T05:57:51.833Z,16.36
2017-09-28T05:58:51.861Z,16.54
2017-09-28T05:59:51.878Z,16.57
2017-09-28T06:00:51.899Z,16.56
2017-09-28T06:01:51.926Z,16.6
2017-09-28T06:02:52.048Z,16.64
2017-09-28T06:03:51.969Z,16.72
2017-09-28T06:04:51.989Z,16.71
2017-09-28T06:05:52.011Z,16.76
2017-09-28T06:06:52.034Z,16.74
2017-09-28T06:07:52.056Z,16.54
2017-09-28T06:08:52.082Z,16.57
2017-09-28T06:09:52.100Z,16.65
2017-09-28T06:10:52.124Z,16.5
2017-09-28T06:11:52.150Z,16.56
2017-09-28T06:12:52.166Z,16.61
2017-09-28T06:13:52.512Z,16.66
2017-09-28T06:14:52.216Z,16.74
2017-09-28T06:15:52.259Z,16.79
2017-09-28T06:16:52.258Z,16.81
2017-09-28T06:17:52.337Z,16.75
2017-09-28T06:18:52.305Z,16.89
2017-09-28T06:19:52.328Z,16.87
2017-09-28T06:20:52.353Z,16.91
2017-09-28T06:21:52.370Z,17.04
2017-09-28T06:22:52.887Z,17.11
2017-09-28T06:23:52.430Z,17.23
2017-09-28T06:24:52.773Z,16.97
2017-09-28T06:25:53.084Z,17.06
2017-09-28T06:26:52.805Z,17.12
2017-09-28T06:27:52.521Z,17.23
2017-09-28T06:28:53.151Z,17.3
2017-09-28T06:29:52.554Z,17.34
2017-09-28T06:30:52.879Z,17.38
2017-09-28T06:31:52.599Z,17.27
2017-09-28T06:32:52.619Z,17.36
2017-09-28T06:33:52.638Z,17.39
2017-09-28T06:34:52.670Z,17.48
2017-09-28T06:35:52.746Z,17.59
2017-09-28T06:36:52.711Z,17.7
2017-09-28T06:37:52.760Z,17.59
2017-09-28T06:38:52.763Z,17.57
2017-09-28T06:39:52.779Z,17.56
2017-09-28T06:40:53.204Z,17.56
2017-09-28T06:41:53.151Z,17.57
2017-09-28T06:42:52.852Z,17.68
2017-09-28T06:43:52.875Z,17.67
2017-09-28T06:44:52.896Z,17.68
2017-09-28T06:45:52.941Z,17.76
2017-09-28T06:46:52.951Z,17.79
2017-09-28T06:47:52.969Z,17.83
2017-09-28T06:48:52.987Z,17.86
2017-09-28T06:49:53.323Z,17.92
2017-09-28T06:50:53.087Z,18.04
2017-09-28T06:51:53.061Z,18.18
2017-09-28T06:52:53.083Z,18.34
2017-09-28T06:53:53.105Z,18.34
2017-09-28T06:54:53.131Z,18.43
2017-09-28T06:55:53.154Z,18.53
2017-09-28T06:56:53.176Z,18.62
2017-09-28T06:57:53.195Z,18.55
2017-09-28T06:58:53.224Z,18.5
2017-09-28T06:59:53.244Z,18.41
2017-09-28T07:00:53.266Z,18.6
2017-09-28T07:01:53.606Z,18.71
2017-09-28T07:02:53.312Z,18.78
2017-09-28T07:03:53.336Z,18.84
2017-09-28T07:04:53.359Z,18.84
2017-09-28T07:05:53.382Z,18.84
2017-09-28T07:06:53.408Z,18.81
2017-09-28T07:07:53.435Z,18.86
2017-09-28T07:08:53.453Z,18.96
2017-09-28T07:09:53.529Z,19.08
2017-09-28T07:10:53.501Z,19.07
2017-09-28T07:11:53.531Z,19.15
2017-09-28T07:12:53.559Z,19.15
2017-09-28T07:13:53.572Z,19.18
2017-09-28T07:14:53.604Z,19.26
2017-09-28T07:15:53.621Z,19.45
2017-09-28T07:16:53.664Z,19.47
2017-09-28T07:17:53.672Z,19.59
2017-09-28T07:18:53.692Z,19.66
2017-09-28T07:19:53.723Z,19.71
2017-09-28T07:20:53.742Z,19.51
2017-09-28T07:21:53.766Z,19.55
2017-09-28T07:22:53.790Z,19.7
2017-09-28T07:23:53.835Z,19.84
2017-09-28T07:24:54.148Z,19.73
2017-09-28T07:25:53.866Z,19.59
2017-09-28T07:26:54.413Z,19.56
2017-09-28T07:27:54.224Z,19.69
2017-09-28T07:28:53.984Z,19.59
2017-09-28T07:29:53.956Z,19.7
2017-09-28T07:30:53.992Z,19.74
2017-09-28T07:31:54.006Z,19.64
2017-09-28T07:32:54.029Z,19.64
2017-09-28T07:33:54.746Z,19.58
2017-09-28T07:34:54.412Z,19.64
2017-09-28T07:35:54.102Z,19.77
2017-09-28T07:36:54.128Z,19.69
2017-09-28T07:37:54.162Z,19.77
2017-09-28T07:38:54.179Z,19.64
2017-09-28T07:39:54.203Z,19.76
2017-09-28T07:40:56.986Z,19.74
2017-09-28T07:41:54.250Z,19.76
2017-09-28T07:42:54.584Z,19.7
2017-09-28T07:43:54.308Z,19.66
2017-09-28T07:44:54.330Z,19.59
2017-09-28T07:45:54.350Z,19.58
2017-09-28T07:46:54.840Z,19.67
2017-09-28T07:47:54.395Z,19.64
2017-09-28T07:48:54.426Z,19.51
2017-09-28T07:49:54.440Z,19.36
2017-09-28T07:50:54.472Z,19.3
2017-09-28T07:51:54.492Z,19.41
2017-09-28T07:52:54.525Z,19.52
2017-09-28T07:53:54.540Z,19.55
2017-09-28T07:54:54.570Z,19.51
2017-09-28T07:55:54.910Z,19.12
2017-09-28T07:56:54.614Z,19.18
2017-09-28T07:57:54.633Z,19.39
2017-09-28T07:58:54.668Z,19.52
2017-09-28T07:59:54.685Z,19.55
2017-09-28T08:00:55.026Z,19.56
2017-09-28T08:01:54.736Z,19.55
2017-09-28T08:02:54.778Z,19.76
2017-09-28T08:03:54.788Z,19.89
2017-09-28T08:04:54.805Z,19.88
2017-09-28T08:05:54.832Z,19.91
2017-09-28T08:06:54.881Z,19.86
2017-09-28T08:07:55.189Z,20.09
2017-09-28T08:08:54.906Z,20.16
2017-09-28T08:09:54.930Z,20.21
2017-09-28T08:10:54.967Z,20.16
2017-09-28T08:11:54.978Z,20.37
2017-09-28T08:12:55.008Z,20.41
2017-09-28T08:13:55.025Z,20.47
2017-09-28T08:14:55.056Z,20.51
2017-09-28T08:15:55.134Z,20.56
2017-09-28T08:16:55.111Z,20.62
2017-09-28T08:17:55.133Z,20.48
2017-09-28T08:18:55.153Z,20.29
2017-09-28T08:19:55.329Z,20.26
2017-09-28T08:20:55.293Z,20.18
2017-09-28T08:21:55.546Z,20.34
2017-09-28T08:22:55.252Z,20.02
2017-09-28T08:23:55.277Z,20.07
2017-09-28T08:24:55.305Z,20.06
2017-09-28T08:25:55.328Z,20.09
2017-09-28T08:26:55.348Z,20.03
2017-09-28T08:27:55.887Z,20.11
2017-09-28T08:28:55.401Z,20.22
2017-09-28T08:29:55.425Z,20.26
2017-09-28T08:30:55.452Z,20.31
2017-09-28T08:31:55.484Z,20.41
2017-09-28T08:32:55.501Z,20.31
2017-09-28T08:33:55.528Z,20.37
2017-09-28T08:34:55.547Z,20.44
2017-09-28T08:35:55.577Z,20.36
2017-09-28T08:36:55.598Z,20.32
2017-09-28T08:37:55.682Z,20.41
2017-09-28T08:38:55.648Z,20.5
2017-09-28T08:39:55.727Z,20.63
2017-09-28T08:40:56.008Z,20.63
2017-09-28T08:41:55.728Z,20.75
2017-09-28T08:42:55.755Z,20.77
2017-09-28T08:43:55.770Z,20.82
2017-09-28T08:44:55.804Z,20.87
2017-09-28T08:45:55.823Z,20.87
2017-09-28T08:46:55.849Z,20.87
2017-09-28T08:47:55.872Z,20.93
2017-09-28T08:48:55.903Z,21.03
2017-09-28T08:49:55.936Z,21.12
2017-09-28T08:50:55.972Z,21.33
2017-09-28T08:51:55.985Z,21.55
2017-09-28T08:52:56.063Z,21.67
2017-09-28T08:53:56.030Z,21.8
2017-09-28T08:54:56.053Z,21.7
2017-09-28T08:55:56.079Z,21.72
2017-09-28T08:56:56.103Z,21.93
2017-09-28T08:57:56.153Z,21.83
2017-09-28T08:58:56.153Z,21.79
2017-09-28T08:59:56.175Z,21.82
2017-09-28T09:00:56.207Z,21.91
2017-09-28T09:01:56.287Z,22.04
2017-09-28T09:02:56.254Z,21.93
2017-09-28T09:03:56.283Z,21.89
2017-09-28T09:04:56.314Z,21.99
2017-09-28T09:05:56.340Z,22.06
2017-09-28T09:06:56.674Z,22.02
2017-09-28T09:07:56.448Z,22.02
2017-09-28T09:08:56.718Z,22.02
2017-09-28T09:09:56.432Z,22
2017-09-28T09:10:56.461Z,21.7
2017-09-28T09:11:56.491Z,21.83
2017-09-28T09:12:56.522Z,21.83
2017-09-28T09:13:56.540Z,21.77
2017-09-28T09:14:56.572Z,21.99
2017-09-28T09:15:56.590Z,21.92
2017-09-28T09:16:56.617Z,21.95
2017-09-28T09:17:56.645Z,22.13
2017-09-28T09:18:56.670Z,22.22
2017-09-28T09:19:56.692Z,22.41
2017-09-28T09:20:56.717Z,22.59
2017-09-28T09:21:56.750Z,22.72
2017-09-28T09:22:56.824Z,22.78
2017-09-28T09:23:56.796Z,22.8
2017-09-28T09:24:56.825Z,22.8
2017-09-28T09:25:56.852Z,22.81
2017-09-28T09:26:56.873Z,22.83
2017-09-28T09:27:56.906Z,22.84
2017-09-28T09:28:56.930Z,22.87
2017-09-28T09:29:56.955Z,22.85
2017-09-28T09:30:56.992Z,23
2017-09-28T09:31:57.318Z,23.03
2017-09-28T09:32:57.032Z,23.17
2017-09-28T09:33:57.060Z,23.31
2017-09-28T09:34:57.084Z,23.27
2017-09-28T09:35:57.110Z,23.34
2017-09-28T09:36:57.139Z,23.34
2017-09-28T09:37:57.165Z,23.25
2017-09-28T09:38:57.194Z,23.09
2017-09-28T09:39:57.270Z,23.18
2017-09-28T09:40:57.248Z,23.17
2017-09-28T09:41:57.275Z,23.27
2017-09-28T09:42:57.612Z,23.32
2017-09-28T09:43:57.329Z,23.34
2017-09-28T09:44:57.358Z,23.03
2017-09-28T09:45:57.381Z,23.06
2017-09-28T09:46:57.403Z,23.21
2017-09-28T09:47:57.434Z,23.37
2017-09-28T09:48:57.460Z,23.5
2017-09-28T09:49:57.485Z,23.56
2017-09-28T09:50:57.516Z,23.55
2017-09-28T09:51:57.539Z,23.43
2017-09-28T09:52:57.567Z,23.71
2017-09-28T09:53:57.596Z,23.47
2017-09-28T09:54:57.672Z,23.54
2017-09-28T09:55:57.650Z,23.81
2017-09-28T09:56:57.680Z,23.96
2017-09-28T09:57:57.707Z,24.18
2017-09-28T09:58:57.732Z,24.17
2017-09-28T09:59:57.757Z,24.21
2017-09-28T10:00:57.784Z,23.92
2017-09-28T10:01:57.828Z,24.03
2017-09-28T10:02:57.844Z,24.18
2017-09-28T10:03:57.869Z,24.53
2017-09-28T10:04:58.217Z,24.66
2017-09-28T10:05:57.924Z,24.73
2017-09-28T10:06:57.954Z,24.69
2017-09-28T10:07:57.986Z,24.86
2017-09-28T10:08:58.012Z,25.07
2017-09-28T10:09:58.040Z,25.31
2017-09-28T10:10:58.125Z,25.17
2017-09-28T10:11:58.107Z,25.38
2017-09-28T10:12:58.119Z,25.36
2017-09-28T10:13:58.149Z,25.25
2017-09-28T10:14:58.177Z,25.41
2017-09-28T10:15:58.215Z,25.35
2017-09-28T10:16:58.241Z,25.36
2017-09-28T10:17:58.270Z,25.5
2017-09-28T10:18:58.295Z,25.66
2017-09-28T10:19:58.325Z,25.68
2017-09-28T10:20:58.351Z,25.93
2017-09-28T10:21:58.380Z,25.96
2017-09-28T10:22:58.413Z,25.96
2017-09-28T10:23:58.436Z,26.06
2017-09-28T10:24:58.476Z,25.99
2017-09-28T10:25:58.497Z,25.95
2017-09-28T10:26:58.528Z,25.99
2017-09-28T10:27:58.610Z,26.06
2017-09-28T10:28:58.583Z,26.28
2017-09-28T10:29:58.615Z,26.44
2017-09-28T10:30:58.648Z,26.45
2017-09-28T10:31:58.671Z,26.44
2017-09-28T10:32:58.704Z,26.59
2017-09-28T10:33:58.733Z,26.63
2017-09-28T10:34:58.761Z,26.6
2017-09-28T10:35:58.790Z,26.47
2017-09-28T10:36:58.824Z,26.44
2017-09-28T10:37:58.848Z,26.52
2017-09-28T10:38:58.876Z,26.55
2017-09-28T10:39:58.927Z,26.48
2017-09-28T10:40:58.945Z,25.98
2017-09-28T10:41:58.960Z,25.96
2017-09-28T10:42:58.990Z,25.84
2017-09-28T10:43:59.020Z,25.68
2017-09-28T10:44:59.370Z,25.73
2017-09-28T10:45:59.339Z,25.99
2017-09-28T10:46:59.102Z,25.93
2017-09-28T10:47:59.136Z,25.98
2017-09-28T10:48:59.478Z,26.02
2017-09-28T10:49:59.209Z,26.02
2017-09-28T10:50:59.221Z,26.02
2017-09-28T10:51:59.250Z,26.03
2017-09-28T10:52:59.279Z,26.15
2017-09-28T10:53:59.306Z,26.21
2017-09-28T10:54:59.334Z,26.31
2017-09-28T10:55:59.359Z,26.31
2017-09-28T10:56:59.583Z,26.29
2017-09-28T10:57:59.426Z,26.26
2017-09-28T10:58:59.463Z,26.22
2017-09-28T10:59:59.474Z,26.19
2017-09-28T11:00:59.501Z,26.15
2017-09-28T11:01:59.856Z,26.29
2017-09-28T11:02:59.893Z,26.1
2017-09-28T11:03:59.592Z,26.1
2017-09-28T11:04:59.616Z,26.26
2017-09-28T11:05:59.644Z,26.36
2017-09-28T11:06:59.683Z,26.38
2017-09-28T11:08:00.020Z,26.26
2017-09-28T11:08:59.740Z,26.03
2017-09-28T11:09:59.757Z,26.18
2017-09-28T11:10:59.795Z,26.23
2017-09-28T11:11:59.818Z,26.58
2017-09-28T11:12:59.850Z,26.74
2017-09-28T11:13:59.875Z,26.63
2017-09-28T11:14:59.906Z,26.75
2017-09-28T11:15:59.951Z,26.84
2017-09-28T11:16:59.958Z,26.93
2017-09-28T11:17:59.987Z,26.84
2017-09-28T11:19:00.067Z,26.62
2017-09-28T11:20:00.044Z,26.75
2017-09-28T11:21:00.081Z,26.95
2017-09-28T11:22:00.439Z,27.14
2017-09-28T11:23:00.443Z,27.21
2017-09-28T11:24:00.169Z,27.27
2017-09-28T11:25:00.191Z,27.36
2017-09-28T11:26:00.222Z,27.44
2017-09-28T11:27:00.263Z,27.45
2017-09-28T11:28:00.593Z,27.42
2017-09-28T11:29:00.302Z,27.58
2017-09-28T11:30:00.655Z,27.71
2017-09-28T11:31:00.684Z,27.86
2017-09-28T11:32:00.734Z,28.01
2017-09-28T11:33:00.426Z,28.05
2017-09-28T11:34:00.448Z,28.04
2017-09-28T11:35:00.474Z,27.96
2017-09-28T11:36:00.509Z,28.04
2017-09-28T11:37:00.531Z,27.96
2017-09-28T11:38:00.620Z,27.93
2017-09-28T11:39:00.594Z,27.96
2017-09-28T11:40:00.635Z,28.12
2017-09-28T11:41:00.661Z,28.11
2017-09-28T11:42:00.997Z,28
2017-09-28T11:43:00.707Z,28.05
2017-09-28T11:44:00.736Z,27.96
2017-09-28T11:45:00.764Z,28.08
2017-09-28T11:46:00.799Z,28.32
2017-09-28T11:47:00.836Z,28.22
2017-09-28T11:48:00.861Z,28.2
2017-09-28T11:49:00.888Z,28.22
2017-09-28T11:50:00.917Z,28.25
2017-09-28T11:51:01.271Z,28.39
2017-09-28T11:52:00.979Z,28.41
2017-09-28T11:53:01.056Z,28.41
2017-09-28T11:54:01.037Z,28.62
2017-09-28T11:55:01.064Z,28.7
2017-09-28T11:56:01.090Z,28.67
2017-09-28T11:57:01.117Z,28.64
2017-09-28T11:58:01.146Z,28.64
2017-09-28T11:59:01.191Z,28.63
2017-09-28T12:00:01.209Z,28.66
2017-09-28T12:01:01.271Z,28.7
2017-09-28T12:02:01.272Z,28.78
2017-09-28T12:03:01.323Z,28.91
2017-09-28T12:04:01.329Z,29.04
2017-09-28T12:05:01.398Z,28.94
2017-09-28T12:06:01.391Z,29.01
2017-09-28T12:07:01.431Z,29.12
2017-09-28T12:08:01.499Z,29.49
2017-09-28T12:09:01.486Z,29.59
2017-09-28T12:10:02.559Z,29.76
2017-09-28T12:11:01.545Z,29.69
2017-09-28T12:12:01.585Z,29.65
2017-09-28T12:13:01.619Z,29.44
2017-09-28T12:14:01.638Z,29.31
2017-09-28T12:15:01.665Z,29.45
2017-09-28T12:16:01.695Z,29.65
2017-09-28T12:17:01.720Z,29.75
2017-09-28T12:18:01.748Z,29.86
2017-09-28T12:19:01.781Z,30.09
2017-09-28T12:20:01.812Z,30.1
2017-09-28T12:21:02.153Z,30.21
2017-09-28T12:22:01.879Z,30.37
2017-09-28T12:23:01.958Z,30.37
2017-09-28T12:24:01.937Z,30.57
2017-09-28T12:25:01.976Z,30.75
2017-09-28T12:26:01.996Z,30.94
2017-09-28T12:27:02.037Z,30.87
2017-09-28T12:28:02.061Z,31.05
2017-09-28T12:29:02.099Z,31.1
2017-09-28T12:30:02.121Z,31.25
2017-09-28T12:31:02.151Z,31.46
2017-09-28T12:32:02.182Z,31.64
2017-09-28T12:33:02.215Z,31.7
2017-09-28T12:34:02.256Z,31.93
2017-09-28T12:35:02.279Z,32.34
2017-09-28T12:36:02.308Z,32.53
2017-09-28T12:37:02.344Z,32.83
2017-09-28T12:38:02.373Z,32.82
2017-09-28T12:39:02.458Z,32.96
2017-09-28T12:40:02.767Z,32.87
2017-09-28T12:41:02.474Z,32.8
2017-09-28T12:42:02.511Z,32.63
2017-09-28T12:43:02.536Z,32.3
2017-09-28T12:44:02.889Z,32.34
2017-09-28T12:45:02.614Z,32.31
2017-09-28T12:46:02.644Z,32.48
2017-09-28T12:47:02.671Z,32.49
2017-09-28T12:48:03.017Z,32.29
2017-09-28T12:49:02.736Z,32.08
2017-09-28T12:50:02.771Z,31.87
2017-09-28T12:51:02.797Z,31.93
2017-09-28T12:52:02.837Z,31.87
2017-09-28T12:53:02.867Z,31.85
2017-09-28T12:54:02.949Z,31.73
2017-09-28T12:55:02.929Z,31.74
2017-09-28T12:56:02.960Z,31.81